Time;durP1;ratioP1;P1;durP2;ratioP2;P2;SDS_P1;SDS_P2;PMS_P1;PMS_P2;Temp;Humidity;BMP_temperature;BMP_pressure;BME280_temperature;BME280_humidity;BME280_pressure;Samples;Min_cycle;Max_cycle;Signal;HPM_P1;HPM_P2
2024/01/02 00:02:38;;;;;;;7.80;2.13;;;;;;;;;;6142094;23;20299;-93
2024/01/02 00:05:43;;;;;;;8.43;2.60;;;;;;;;;;6142003;23;20172;-91
2024/01/02 00:08:51;;;;;;;10.27;2.53;;;;;;;;;;6141707;23;20165;-92
2024/01/02 00:11:57;;;;;;;8.90;2.13;;;;;;;;;;6145048;23;20248;-93
2024/01/02 00:15:03;;;;;;;6.53;2.47;;;;;;;;;;6143378;23;20173;-92
2024/01/02 00:18:14;;;;;;;10.00;2.20;;;;;;;;;;6143124;23;20169;-94
2024/01/02 00:21:19;;;;;;;4.13;1.70;;;;;;;;;;6140226;23;20189;-89
2024/01/02 00:24:24;;;;;;;12.27;2.20;;;;;;;;;;6139050;23;20184;-93
2024/01/02 00:27:30;;;;;;;8.60;1.93;;;;;;;;;;6141227;23;20165;-91
2024/01/02 00:30:35;;;;;;;9.50;1.80;;;;;;;;;;6140427;23;20212;-94
2024/01/02 00:33:42;;;;;;;7.17;1.73;;;;;;;;;;6141971;23;20172;-92
2024/01/02 00:36:47;;;;;;;5.83;1.83;;;;;;;;;;6138556;23;20212;-92
2024/01/02 00:39:52;;;;;;;3.53;1.77;;;;;;;;;;6139512;23;20169;-93
2024/01/02 00:42:58;;;;;;;9.20;2.00;;;;;;;;;;6139345;23;20227;-91
2024/01/02 00:46:03;;;;;;;9.37;1.97;;;;;;;;;;6140758;23;20188;-93
2024/01/02 00:49:12;;;;;;;9.03;2.10;;;;;;;;;;6140324;23;20213;-92
2024/01/02 00:52:17;;;;;;;8.03;2.10;;;;;;;;;;6142707;23;20153;-94
2024/01/02 00:55:24;;;;;;;9.63;2.27;;;;;;;;;;6142407;23;20198;-91
2024/01/02 00:58:29;;;;;;;6.20;2.10;;;;;;;;;;6141769;23;20169;-90
2024/01/02 01:01:41;;;;;;;11.47;3.10;;;;;;;;;;6141929;23;20391;-94
2024/01/02 01:04:48;;;;;;;9.17;2.53;;;;;;;;;;6141710;23;20197;-91
2024/01/02 01:07:53;;;;;;;11.50;2.80;;;;;;;;;;6141237;23;20170;-90
2024/01/02 01:10:59;;;;;;;15.77;2.30;;;;;;;;;;6141438;23;20169;-91
2024/01/02 01:14:05;;;;;;;8.50;2.60;;;;;;;;;;6138720;23;20169;-91
2024/01/02 01:17:11;;;;;;;6.77;1.60;;;;;;;;;;6139968;23;20194;-93
2024/01/02 01:20:19;;;;;;;8.23;2.37;;;;;;;;;;6140599;23;20170;-94
2024/01/02 01:23:24;;;;;;;8.30;2.43;;;;;;;;;;6140810;23;20186;-92
2024/01/02 01:26:33;;;;;;;7.10;2.03;;;;;;;;;;6140677;23;20319;-91
2024/01/02 01:29:38;;;;;;;6.50;1.97;;;;;;;;;;6139560;23;20173;-90
2024/01/02 01:32:43;;;;;;;8.87;2.30;;;;;;;;;;6142434;23;20160;-93
2024/01/02 01:35:50;;;;;;;7.33;2.20;;;;;;;;;;6142603;23;20174;-92
2024/01/02 01:38:55;;;;;;;8.87;2.00;;;;;;;;;;6141418;23;20616;-92
2024/01/02 01:42:00;;;;;;;9.30;2.00;;;;;;;;;;6141011;23;20527;-92
2024/01/02 01:45:06;;;;;;;8.70;2.23;;;;;;;;;;6142311;23;20184;-91
2024/01/02 01:48:12;;;;;;;7.70;2.40;;;;;;;;;;6141564;23;20164;-93
2024/01/02 01:51:19;;;;;;;10.80;2.07;;;;;;;;;;6141021;23;20173;-91
2024/01/02 01:54:25;;;;;;;6.57;2.67;;;;;;;;;;6142278;23;20217;-95
2024/01/02 01:57:30;;;;;;;5.87;1.80;;;;;;;;;;6141105;23;20164;-91
2024/01/02 02:00:36;;;;;;;7.60;2.20;;;;;;;;;;6140007;23;20170;-92
2024/01/02 02:03:43;;;;;;;10.50;2.23;;;;;;;;;;6141114;23;20157;-92
2024/01/02 02:06:50;;;;;;;8.93;2.10;;;;;;;;;;6141111;23;20178;-92
2024/01/02 02:09:55;;;;;;;6.27;1.90;;;;;;;;;;6141735;23;20180;-93
2024/01/02 02:13:00;;;;;;;6.07;2.27;;;;;;;;;;6142168;23;20256;-91
2024/01/02 02:16:06;;;;;;;7.30;2.20;;;;;;;;;;6139986;23;20693;-92
2024/01/02 02:19:12;;;;;;;8.10;2.40;;;;;;;;;;6140613;23;20220;-92
2024/01/02 02:22:19;;;;;;;11.03;2.60;;;;;;;;;;6139385;23;20290;-90
2024/01/02 02:25:26;;;;;;;8.07;2.33;;;;;;;;;;6138542;23;20241;-90
2024/01/02 02:28:32;;;;;;;14.23;2.60;;;;;;;;;;6139498;23;20177;-90
2024/01/02 02:31:37;;;;;;;10.27;3.27;;;;;;;;;;6137428;23;20177;-92
2024/01/02 02:34:42;;;;;;;9.30;2.57;;;;;;;;;;6138819;23;20180;-91
2024/01/02 02:37:47;;;;;;;11.33;2.97;;;;;;;;;;6138348;23;20169;-92
2024/01/02 02:40:54;;;;;;;8.43;2.83;;;;;;;;;;6137084;23;20173;-92
2024/01/02 02:43:59;;;;;;;9.67;2.40;;;;;;;;;;6138199;23;20192;-94
2024/01/02 02:47:04;;;;;;;10.10;2.50;;;;;;;;;;6138450;23;20177;-93
2024/01/02 02:50:11;;;;;;;10.17;3.00;;;;;;;;;;6135958;23;20313;-90
2024/01/02 02:53:16;;;;;;;9.53;2.27;;;;;;;;;;6137351;23;20153;-91
2024/01/02 02:56:23;;;;;;;9.10;2.27;;;;;;;;;;6138161;23;20221;-92
2024/01/02 02:59:28;;;;;;;7.97;2.73;;;;;;;;;;6137127;23;20169;-90
2024/01/02 03:02:33;;;;;;;11.67;3.00;;;;;;;;;;6138346;23;20260;-91
2024/01/02 03:05:39;;;;;;;8.30;2.20;;;;;;;;;;6137202;23;20193;-92
2024/01/02 03:08:44;;;;;;;7.47;2.60;;;;;;;;;;6136967;23;20173;-90
2024/01/02 03:11:50;;;;;;;10.43;2.40;;;;;;;;;;6137688;23;20209;-92
2024/01/02 03:14:56;;;;;;;7.10;2.17;;;;;;;;;;6137688;23;20286;-92
2024/01/02 03:18:01;;;;;;;9.17;2.73;;;;;;;;;;6138091;23;20169;-94
2024/01/02 03:21:07;;;;;;;5.57;2.10;;;;;;;;;;6136779;23;20213;-92
2024/01/02 03:24:12;;;;;;;7.73;2.30;;;;;;;;;;6137988;23;20173;-91
2024/01/02 03:27:19;;;;;;;7.20;2.10;;;;;;;;;;6139741;23;20173;-92
2024/01/02 03:30:25;;;;;;;11.20;2.10;;;;;;;;;;6139800;23;20264;-91
2024/01/02 03:33:30;;;;;;;10.83;1.97;;;;;;;;;;6140368;23;20169;-92
2024/01/02 03:36:35;;;;;;;11.97;2.30;;;;;;;;;;6139968;23;20172;-92
2024/01/02 03:39:41;;;;;;;6.33;2.00;;;;;;;;;;6138162;23;20173;-90
2024/01/02 03:42:48;;;;;;;8.27;1.83;;;;;;;;;;6139157;23;20177;-94
2024/01/02 03:45:53;;;;;;;9.73;2.43;;;;;;;;;;6140364;23;20240;-92
2024/01/02 03:48:58;;;;;;;11.43;2.73;;;;;;;;;;6141792;23;20169;-89
2024/01/02 03:52:03;;;;;;;8.07;2.10;;;;;;;;;;6141173;23;20626;-93
2024/01/02 03:55:11;;;;;;;7.00;2.23;;;;;;;;;;6138428;23;20633;-91
2024/01/02 03:58:17;;;;;;;6.00;1.93;;;;;;;;;;6140022;23;20180;-91
2024/01/02 04:01:22;;;;;;;6.13;1.97;;;;;;;;;;6138762;23;20260;-93
2024/01/02 04:04:27;;;;;;;4.60;1.90;;;;;;;;;;6138369;23;20193;-93
2024/01/02 04:07:33;;;;;;;6.33;1.90;;;;;;;;;;6139663;23;20177;-93
2024/01/02 04:10:38;;;;;;;8.80;2.17;;;;;;;;;;6138050;23;20252;-91
2024/01/02 04:13:45;;;;;;;11.13;2.50;;;;;;;;;;6139870;23;20153;-90
2024/01/02 04:16:50;;;;;;;5.70;2.20;;;;;;;;;;6140875;23;20193;-92
2024/01/02 04:19:55;;;;;;;6.77;2.20;;;;;;;;;;6140067;23;20302;-94
2024/01/02 04:23:00;;;;;;;6.90;2.03;;;;;;;;;;6140230;23;20169;-91
2024/01/02 04:26:06;;;;;;;7.27;2.20;;;;;;;;;;6140026;23;20301;-92
2024/01/02 04:29:12;;;;;;;10.33;2.27;;;;;;;;;;6139948;23;20173;-91
2024/01/02 04:32:18;;;;;;;8.57;2.40;;;;;;;;;;6141210;23;20169;-93
2024/01/02 04:35:23;;;;;;;9.10;2.23;;;;;;;;;;6139932;23;20168;-94
2024/01/02 04:38:28;;;;;;;10.37;2.20;;;;;;;;;;6139410;23;20186;-92
2024/01/02 04:41:33;;;;;;;7.50;2.17;;;;;;;;;;6140205;23;20193;-92
2024/01/02 04:44:40;;;;;;;7.67;2.67;;;;;;;;;;6138775;23;20193;-90
2024/01/02 04:47:45;;;;;;;9.53;2.70;;;;;;;;;;6141071;23;20149;-92
2024/01/02 04:50:50;;;;;;;9.93;2.70;;;;;;;;;;6140044;23;20172;-93
2024/01/02 04:53:56;;;;;;;7.37;2.97;;;;;;;;;;6139422;23;20173;-92
2024/01/02 04:57:01;;;;;;;8.50;2.70;;;;;;;;;;6140073;23;20241;-93
2024/01/02 05:00:08;;;;;;;7.90;2.23;;;;;;;;;;6139259;23;20503;-90
2024/01/02 05:03:14;;;;;;;7.87;2.40;;;;;;;;;;6140208;23;20165;-92
2024/01/02 05:06:19;;;;;;;11.60;2.90;;;;;;;;;;6141605;23;20197;-91
2024/01/02 05:09:24;;;;;;;8.87;2.97;;;;;;;;;;6140373;23;20173;-90
2024/01/02 05:12:30;;;;;;;6.13;2.10;;;;;;;;;;6141216;23;20218;-91
2024/01/02 05:15:36;;;;;;;12.53;2.57;;;;;;;;;;6141503;23;20174;-90
2024/01/02 05:18:42;;;;;;;9.33;2.43;;;;;;;;;;6141141;23;20160;-90
2024/01/02 05:21:51;;;;;;;4.23;1.87;;;;;;;;;;6142201;23;20186;-92
2024/01/02 05:24:56;;;;;;;5.77;2.00;;;;;;;;;;6142126;23;20271;-91
2024/01/02 05:28:01;;;;;;;7.47;2.00;;;;;;;;;;6142234;23;20205;-92
2024/01/02 05:31:09;;;;;;;6.87;2.03;;;;;;;;;;6142146;23;20186;-94
2024/01/02 05:34:15;;;;;;;14.07;2.93;;;;;;;;;;6139798;23;20170;-91
2024/01/02 05:37:20;;;;;;;6.67;2.33;;;;;;;;;;6142045;23;20227;-89
2024/01/02 05:40:26;;;;;;;6.33;1.97;;;;;;;;;;6140806;23;20179;-91
2024/01/02 05:43:31;;;;;;;7.47;2.10;;;;;;;;;;6140717;23;20185;-93
2024/01/02 05:46:39;;;;;;;6.27;2.13;;;;;;;;;;6140840;23;20212;-90
2024/01/02 05:49:44;;;;;;;5.67;1.80;;;;;;;;;;6139249;23;20217;-92
2024/01/02 05:52:49;;;;;;;5.80;1.80;;;;;;;;;;6140890;23;20153;-92
2024/01/02 05:55:55;;;;;;;7.60;1.83;;;;;;;;;;6140480;23;20145;-91
2024/01/02 05:59:01;;;;;;;7.20;2.10;;;;;;;;;;6141525;23;20252;-93
2024/01/02 06:02:08;;;;;;;6.43;2.57;;;;;;;;;;6142405;23;20192;-92
2024/01/02 06:05:15;;;;;;;5.83;1.97;;;;;;;;;;6141434;23;20193;-90
2024/01/02 06:08:21;;;;;;;4.20;2.20;;;;;;;;;;6138404;23;20170;-91
2024/01/02 06:11:26;;;;;;;8.43;2.50;;;;;;;;;;6139044;23;20232;-92
2024/01/02 06:14:31;;;;;;;8.30;2.13;;;;;;;;;;6138293;23;20169;-94
2024/01/02 06:17:40;;;;;;;6.10;2.10;;;;;;;;;;6140280;23;20173;-91
2024/01/02 06:20:46;;;;;;;6.17;2.27;;;;;;;;;;6141131;23;20629;-93
2024/01/02 06:23:51;;;;;;;7.73;2.10;;;;;;;;;;6140139;23;20160;-93
2024/01/02 06:26:57;;;;;;;4.27;2.07;;;;;;;;;;6143335;23;20221;-91
2024/01/02 06:30:03;;;;;;;10.23;2.17;;;;;;;;;;6142680;23;20173;-91
2024/01/02 06:36:33;;;;;;;6.37;2.30;;;;;;;;;;6140195;23;20193;-93
2024/01/02 06:39:39;;;;;;;9.00;3.10;;;;;;;;;;6140892;23;20218;-91
2024/01/02 06:42:45;;;;;;;5.93;2.40;;;;;;;;;;6140973;23;20169;-93
2024/01/02 06:45:52;;;;;;;9.07;3.10;;;;;;;;;;6140470;23;20200;-92
2024/01/02 06:48:58;;;;;;;6.57;2.27;;;;;;;;;;6140734;23;20179;-93
2024/01/02 06:52:03;;;;;;;4.87;2.40;;;;;;;;;;6143866;23;20150;-91
2024/01/02 06:55:09;;;;;;;9.70;2.80;;;;;;;;;;6142676;23;20177;-91
2024/01/02 06:58:14;;;;;;;6.43;2.30;;;;;;;;;;6143809;23;20165;-92
2024/01/02 07:01:20;;;;;;;8.37;2.40;;;;;;;;;;6143522;23;20196;-93
2024/01/02 07:04:27;;;;;;;9.30;2.20;;;;;;;;;;6142374;23;20252;-93
2024/01/02 07:07:33;;;;;;;6.53;2.27;;;;;;;;;;6142400;23;20217;-90
2024/01/02 07:10:38;;;;;;;8.57;2.50;;;;;;;;;;6141873;23;20173;-92
2024/01/02 07:13:44;;;;;;;5.17;2.30;;;;;;;;;;6141248;23;20153;-91
2024/01/02 07:16:50;;;;;;;8.10;2.30;;;;;;;;;;6141829;23;20173;-93
2024/01/02 07:19:58;;;;;;;7.43;2.70;;;;;;;;;;6141635;23;20220;-90
2024/01/02 07:23:03;;;;;;;6.10;2.43;;;;;;;;;;6140220;23;20176;-90
2024/01/02 07:26:09;;;;;;;7.77;2.43;;;;;;;;;;6141609;23;20192;-91
2024/01/02 07:29:14;;;;;;;5.40;2.20;;;;;;;;;;6142580;23;20168;-92
2024/01/02 07:32:27;;;;;;;10.67;2.40;;;;;;;;;;6141865;23;20177;-91
2024/01/02 07:35:35;;;;;;;5.53;2.23;;;;;;;;;;6141270;23;20170;-91
2024/01/02 07:38:40;;;;;;;5.93;2.23;;;;;;;;;;6143648;23;20221;-92
2024/01/02 07:41:45;;;;;;;7.03;2.60;;;;;;;;;;6141775;23;20153;-92
2024/01/02 07:44:51;;;;;;;5.23;2.47;;;;;;;;;;6141083;23;20173;-90
2024/01/02 07:47:56;;;;;;;13.53;4.10;;;;;;;;;;6140025;23;20177;-90
2024/01/02 07:51:04;;;;;;;10.67;3.53;;;;;;;;;;6142401;23;20173;-93
2024/01/02 07:54:09;;;;;;;36.87;15.30;;;;;;;;;;6140802;23;20707;-94
2024/01/02 07:57:14;;;;;;;11.37;3.90;;;;;;;;;;6139950;23;20177;-93
2024/01/02 08:00:20;;;;;;;7.33;3.17;;;;;;;;;;6140514;23;20169;-92
2024/01/02 08:03:25;;;;;;;6.67;2.60;;;;;;;;;;6140629;23;20257;-93
2024/01/02 08:06:32;;;;;;;6.93;2.80;;;;;;;;;;6141345;23;20237;-93
2024/01/02 08:09:38;;;;;;;8.30;2.33;;;;;;;;;;6141831;23;20170;-95
2024/01/02 08:12:43;;;;;;;8.40;3.47;;;;;;;;;;6141322;23;20237;-93
2024/01/02 08:15:49;;;;;;;8.00;2.70;;;;;;;;;;6138263;23;20198;-91
2024/01/02 08:18:54;;;;;;;10.80;5.17;;;;;;;;;;6140894;23;20153;-95
2024/01/02 08:22:02;;;;;;;7.90;4.53;;;;;;;;;;6140151;23;20161;-93
2024/01/02 08:25:10;;;;;;;11.07;4.07;;;;;;;;;;6139995;23;20181;-92
2024/01/02 08:28:16;;;;;;;11.00;3.70;;;;;;;;;;6140212;23;20177;-91
2024/01/02 08:31:21;;;;;;;10.53;3.03;;;;;;;;;;6139339;23;20165;-89
2024/01/02 08:34:27;;;;;;;9.43;2.60;;;;;;;;;;6142015;23;20191;-93
2024/01/02 08:37:39;;;;;;;14.13;4.60;;;;;;;;;;6141727;23;20176;-92
2024/01/02 08:40:44;;;;;;;8.63;2.70;;;;;;;;;;6141853;23;20173;-93
2024/01/02 08:43:54;;;;;;;6.37;2.87;;;;;;;;;;6142786;23;20257;-93
2024/01/02 08:47:01;;;;;;;8.03;2.90;;;;;;;;;;6142713;23;20205;-90
2024/01/02 08:50:08;;;;;;;14.10;4.50;;;;;;;;;;6143193;23;20165;-93
2024/01/02 08:53:19;;;;;;;13.07;6.30;;;;;;;;;;6144791;23;20217;-93
2024/01/02 08:56:26;;;;;;;18.60;6.30;;;;;;;;;;6145645;23;20169;-92
2024/01/02 08:59:32;;;;;;;18.00;5.33;;;;;;;;;;6143890;23;20631;-93
2024/01/02 09:02:37;;;;;;;21.63;6.93;;;;;;;;;;6143860;23;20274;-92
2024/01/02 09:05:43;;;;;;;16.60;4.37;;;;;;;;;;6145684;23;20180;-92
2024/01/02 09:08:51;;;;;;;25.37;7.20;;;;;;;;;;6146538;23;20165;-94
2024/01/02 09:11:57;;;;;;;18.80;5.40;;;;;;;;;;6145331;23;20273;-93
2024/01/02 09:15:04;;;;;;;14.83;4.17;;;;;;;;;;6143388;23;20193;-94
2024/01/02 09:18:09;;;;;;;13.33;4.63;;;;;;;;;;6143547;23;20218;-94
2024/01/02 09:21:14;;;;;;;10.80;3.73;;;;;;;;;;6143061;23;20169;-92
2024/01/02 09:24:22;;;;;;;16.00;4.50;;;;;;;;;;6143284;23;20220;-93
2024/01/02 09:27:31;;;;;;;10.43;3.90;;;;;;;;;;6144359;23;20221;-93
2024/01/02 09:30:37;;;;;;;16.27;4.97;;;;;;;;;;6145468;23;20185;-92
2024/01/02 09:33:44;;;;;;;11.60;4.07;;;;;;;;;;6143844;23;20177;-91
2024/01/02 09:36:52;;;;;;;11.33;4.20;;;;;;;;;;6143378;23;20173;-91
2024/01/02 09:40:03;;;;;;;8.90;3.57;;;;;;;;;;6144854;23;20177;-91
2024/01/02 09:43:13;;;;;;;13.53;3.73;;;;;;;;;;6144814;23;20208;-92
2024/01/02 09:46:22;;;;;;;16.53;4.37;;;;;;;;;;6146051;23;20201;-92
2024/01/02 09:49:29;;;;;;;11.73;5.00;;;;;;;;;;6144642;23;20225;-91
2024/01/02 09:52:50;;;;;;;22.23;5.73;;;;;;;;;;6147128;23;20173;-93
2024/01/02 09:56:02;;;;;;;14.57;5.60;;;;;;;;;;6121491;23;20189;-92
2024/01/02 09:59:13;;;;;;;15.83;4.90;;;;;;;;;;6145811;23;20164;-93
2024/01/02 10:02:37;;;;;;;14.30;5.10;;;;;;;;;;6144970;23;20200;-93
2024/01/02 10:05:56;;;;;;;11.10;4.70;;;;;;;;;;6145056;23;20178;-94
2024/01/02 10:16:22;;;;;;;11.50;4.37;;;;;;;;;;6147517;23;20173;-92
2024/01/02 10:19:34;;;;;;;14.37;4.27;;;;;;;;;;6147081;23;20173;-92
2024/01/02 10:22:52;;;;;;;11.27;3.70;;;;;;;;;;6146912;23;20194;-93
2024/01/02 10:26:01;;;;;;;8.63;4.40;;;;;;;;;;6145897;23;20502;-93
2024/01/02 23:02:44;;;;;;;4.23;1.70;;;;;;;;;;6098056;23;20210;-92
2024/01/02 23:05:49;;;;;;;1.67;1.53;;;;;;;;;;6095721;23;20608;-91
2024/01/02 23:08:55;;;;;;;1.10;1.00;;;;;;;;;;6095229;23;20170;-92
2024/01/02 23:12:01;;;;;;;1.27;1.20;;;;;;;;;;6094084;23;20170;-93
2024/01/02 23:15:31;;;;;;;1.20;1.10;;;;;;;;;;6093963;23;20198;-95
2024/01/02 23:18:39;;;;;;;1.77;0.97;;;;;;;;;;6095854;23;20210;-93
2024/01/02 23:21:51;;;;;;;0.93;0.93;;;;;;;;;;6095187;23;20245;-92
2024/01/02 23:24:57;;;;;;;1.57;1.40;;;;;;;;;;6095369;23;20210;-94
2024/01/02 23:28:06;;;;;;;0.37;0.37;;;;;;;;;;6095580;23;20181;-93
2024/01/02 23:31:13;;;;;;;1.37;1.00;;;;;;;;;;6094011;23;20183;-94
2024/01/02 23:34:28;;;;;;;0.83;0.83;;;;;;;;;;6094911;23;20158;-93
2024/01/02 23:37:35;;;;;;;1.33;1.17;;;;;;;;;;6093784;23;20166;-93
2024/01/02 23:40:41;;;;;;;0.63;0.60;;;;;;;;;;6092818;23;20157;-93
2024/01/02 23:43:46;;;;;;;2.80;1.20;;;;;;;;;;6093827;23;20154;-92
2024/01/02 23:46:51;;;;;;;0.97;0.90;;;;;;;;;;6093114;23;20194;-94
2024/01/02 23:49:58;;;;;;;2.07;0.80;;;;;;;;;;6093035;23;20173;-93
2024/01/02 23:53:03;;;;;;;0.70;0.70;;;;;;;;;;6095073;23;20170;-93
2024/01/02 23:56:17;;;;;;;1.03;0.67;;;;;;;;;;6094986;23;20235;-93
2024/01/02 23:59:22;;;;;;;1.33;1.20;;;;;;;;;;6095947;23;20155;-92
